Pinellas Park, Florida
Current Conditions -  °F | °C
As of 4:53 PM on Monday 20 Oct 2014 (Local Time) from KPIE Reporting Station
Clear Clear  
Wind Chill: 84°   Ceiling: Unl
Heat Index: 85°   Visibility: 10mi
Dew Point: 62°   Wind: 5mph
Humidity: 47%   Direction: 40°NE
Pressure: 29.95"   Gusts: NA
Location:  27.84°N, 82.7°W
Report Text: KPIE 202053Z 04004KT 10SM CLR 29/17 A2995 RMK AO2 SLP141 T02890167 56012
Loading
Personal Weather Stations






























Interactive Weather Map
Tropical Storm Tracking
New forecast layout! Learn more

10-Day Weather Forecast

Advertisements
Track Severe Weather on mobile